createdAt,value
2022-10-11T00:00:58.637Z,16.67
2022-10-11T00:03:26.502Z,16.67
2022-10-11T00:05:56.648Z,16.37
2022-10-11T00:08:24.028Z,15.93
2022-10-11T00:11:00.128Z,18.63
2022-10-11T00:13:28.222Z,17.33
2022-10-11T00:15:56.800Z,16.58
2022-10-11T00:18:24.815Z,16.30
2022-10-11T00:21:02.972Z,18.17
2022-10-11T00:23:30.766Z,16.62
2022-10-11T00:26:04.024Z,16.40
2022-10-11T00:28:33.211Z,18.00
2022-10-11T00:31:01.297Z,17.80
2022-10-11T00:33:29.127Z,18.35
2022-10-11T00:35:59.949Z,18.17
2022-10-11T00:38:27.589Z,17.77
2022-10-11T00:40:55.118Z,17.07
2022-10-11T00:43:26.317Z,17.43
2022-10-11T00:45:56.746Z,18.43
2022-10-11T00:48:36.737Z,19.80
2022-10-11T00:51:11.833Z,19.43
2022-10-11T00:53:40.111Z,20.07
2022-10-11T00:56:14.910Z,19.77
2022-10-11T00:58:43.765Z,19.83
2022-10-11T01:01:11.715Z,18.23
2022-10-11T01:03:40.819Z,19.33
2022-10-11T01:06:09.270Z,19.42
2022-10-11T01:08:38.217Z,20.60
2022-10-11T01:11:06.531Z,19.52
2022-10-11T01:13:52.633Z,20.08
2022-10-11T01:16:27.206Z,21.20
2022-10-11T01:19:02.098Z,19.67
2022-10-11T01:21:43.325Z,20.67
2022-10-11T01:24:28.773Z,20.60
2022-10-11T01:27:25.591Z,20.83
2022-10-11T01:30:05.174Z,21.47
2022-10-11T01:32:45.386Z,21.77
2022-10-11T01:36:01.570Z,24.57
2022-10-11T01:38:50.794Z,22.00
2022-10-11T01:41:28.478Z,21.30
2022-10-11T01:44:00.771Z,22.00
2022-10-11T01:46:29.814Z,23.07
2022-10-11T01:49:00.580Z,23.40
2022-10-11T01:51:33.388Z,22.10
2022-10-11T01:54:18.925Z,22.77
2022-10-11T01:57:04.922Z,22.80
2022-10-11T01:59:57.359Z,23.07
2022-10-11T02:02:45.723Z,25.10
2022-10-11T02:05:23.727Z,27.98
2022-10-11T02:08:20.317Z,26.67
2022-10-11T02:11:01.004Z,27.10
2022-10-11T02:13:34.460Z,25.57
2022-10-11T02:16:07.081Z,25.17
2022-10-11T02:18:39.995Z,25.23
2022-10-11T02:21:11.938Z,25.87
2022-10-11T02:23:48.406Z,24.93
2022-10-11T02:26:18.840Z,25.37
2022-10-11T02:28:47.049Z,23.13
2022-10-11T02:31:17.809Z,27.30
2022-10-11T02:33:52.722Z,23.50
2022-10-11T02:36:29.550Z,27.47
2022-10-11T02:39:05.653Z,29.47
2022-10-11T02:41:39.451Z,28.53
2022-10-11T02:44:13.278Z,26.60
2022-10-11T02:46:43.611Z,27.80
2022-10-11T02:49:13.255Z,27.77
2022-10-11T02:51:42.543Z,25.73
2022-10-11T02:54:10.219Z,25.33
2022-10-11T02:56:37.976Z,27.33
2022-10-11T02:59:05.481Z,28.47
2022-10-11T03:01:33.079Z,28.20
2022-10-11T03:04:01.076Z,25.03
2022-10-11T03:06:28.502Z,28.67
2022-10-11T03:08:55.894Z,26.30
2022-10-11T03:11:26.483Z,26.83
2022-10-11T03:13:53.939Z,26.67
2022-10-11T03:16:21.631Z,28.13
2022-10-11T03:18:49.446Z,27.70
2022-10-11T03:21:16.912Z,26.73
2022-10-11T03:23:44.382Z,26.60
2022-10-11T03:26:12.222Z,27.67
2022-10-11T03:28:39.779Z,25.10
2022-10-11T03:31:07.259Z,25.73
2022-10-11T03:33:35.111Z,24.90
2022-10-11T03:36:03.045Z,23.20
2022-10-11T03:38:30.857Z,24.17
2022-10-11T03:40:58.636Z,23.90
2022-10-11T03:43:26.437Z,26.43
2022-10-11T03:45:54.002Z,24.30
2022-10-11T03:48:22.518Z,23.63
2022-10-11T03:50:50.286Z,25.10
2022-10-11T03:53:17.858Z,25.27
2022-10-11T03:55:45.961Z,24.17
2022-10-11T03:58:13.383Z,24.00
2022-10-11T04:00:40.956Z,23.67
2022-10-11T04:03:08.933Z,25.00
2022-10-11T04:05:36.337Z,24.07
2022-10-11T04:08:22.673Z,23.30
2022-10-11T04:10:50.487Z,24.43
2022-10-11T04:13:18.173Z,23.97
2022-10-11T04:15:47.104Z,23.13
2022-10-11T04:18:14.954Z,24.30
2022-10-11T04:20:42.923Z,23.03
2022-10-11T04:23:11.083Z,24.27
2022-10-11T04:25:39.849Z,24.55
2022-10-11T04:28:09.236Z,24.05
2022-10-11T04:30:36.907Z,22.47
2022-10-11T04:33:04.810Z,22.63
2022-10-11T04:35:32.378Z,22.60
2022-10-11T04:37:59.879Z,22.90
2022-10-11T04:40:27.909Z,21.80
2022-10-11T04:42:55.490Z,21.23
2022-10-11T04:45:22.949Z,21.30
2022-10-11T04:47:50.763Z,22.07
2022-10-11T04:50:18.740Z,20.27
2022-10-11T04:52:46.221Z,18.60
2022-10-11T04:55:14.041Z,20.50
2022-10-11T04:57:41.531Z,20.10
2022-10-11T05:00:09.733Z,20.03
2022-10-11T05:02:37.478Z,18.70
2022-10-11T05:05:05.300Z,17.77
2022-10-11T05:07:32.793Z,20.13
2022-10-11T05:10:00.686Z,20.17
2022-10-11T05:12:28.190Z,20.13
2022-10-11T05:14:55.683Z,18.13
2022-10-11T05:17:23.583Z,15.93
2022-10-11T05:19:50.990Z,15.57
2022-10-11T05:22:18.731Z,17.77
2022-10-11T05:24:46.550Z,18.17
2022-10-11T05:27:13.983Z,16.83
2022-10-11T05:29:41.444Z,17.10
2022-10-11T05:32:09.267Z,15.83
2022-10-11T05:34:36.672Z,16.80
2022-10-11T05:37:04.129Z,15.90
2022-10-11T05:39:32.561Z,15.93
2022-10-11T05:42:00.037Z,15.90
2022-10-11T05:44:27.549Z,15.27
2022-10-11T05:46:55.407Z,17.50
2022-10-11T05:49:22.974Z,16.27
2022-10-11T05:51:50.422Z,15.73
2022-10-11T05:54:18.205Z,16.17
2022-10-11T05:56:45.718Z,15.83
2022-10-11T05:59:13.143Z,16.57
2022-10-11T06:01:41.003Z,15.90
2022-10-11T06:04:08.937Z,16.60
2022-10-11T06:06:36.358Z,15.83
2022-10-11T06:09:03.823Z,15.23
2022-10-11T06:11:31.828Z,20.33
2022-10-11T06:13:59.697Z,19.87
2022-10-11T06:16:27.672Z,15.40
2022-10-11T06:18:57.535Z,16.50
2022-10-11T06:21:25.516Z,15.57
2022-10-11T06:23:59.881Z,17.17
2022-10-11T06:26:29.591Z,18.07
2022-10-11T06:28:57.435Z,16.70
2022-10-11T06:31:25.130Z,16.93
2022-10-11T06:33:53.027Z,17.70
2022-10-11T06:36:20.609Z,20.53
2022-10-11T06:38:48.210Z,17.37
2022-10-11T06:41:22.014Z,18.43
2022-10-11T06:43:52.309Z,16.93
2022-10-11T06:46:22.498Z,16.30
2022-10-11T06:48:50.746Z,18.83
2022-10-11T06:51:21.112Z,16.90
2022-10-11T06:53:55.619Z,16.77
2022-10-11T06:56:23.658Z,17.63
2022-10-11T06:58:51.651Z,17.30
2022-10-11T07:01:21.531Z,17.17
2022-10-11T07:03:50.833Z,16.90
2022-10-11T07:06:21.330Z,18.80
2022-10-11T07:08:49.278Z,17.60
2022-10-11T07:11:20.348Z,18.80
2022-10-11T07:13:57.193Z,18.37
2022-10-11T07:16:25.728Z,18.57
2022-10-11T07:19:00.488Z,18.83
2022-10-11T07:21:30.204Z,19.17
2022-10-11T07:23:58.458Z,17.00
2022-10-11T07:26:26.003Z,18.00
2022-10-11T07:28:53.798Z,18.00
2022-10-11T07:31:24.738Z,17.10
2022-10-11T07:33:52.747Z,16.93
2022-10-11T07:36:20.993Z,17.17
2022-10-11T07:38:50.271Z,16.67
2022-10-11T07:41:17.952Z,17.35
2022-10-11T07:43:48.025Z,17.67
2022-10-11T07:46:19.681Z,18.30
2022-10-11T07:48:47.363Z,16.50
2022-10-11T07:51:18.528Z,16.27
2022-10-11T07:53:49.063Z,17.77
2022-10-11T07:56:22.465Z,17.80
2022-10-11T07:58:55.992Z,18.30
2022-10-11T08:01:25.051Z,17.57
2022-10-11T08:03:55.212Z,16.13
2022-10-11T08:06:30.676Z,17.87
2022-10-11T08:09:00.750Z,17.70
2022-10-11T08:11:34.870Z,18.27
2022-10-11T08:14:08.544Z,18.57
2022-10-11T08:16:36.669Z,17.50
2022-10-11T08:19:05.167Z,21.65
2022-10-11T08:21:33.074Z,18.00
2022-10-11T08:24:03.060Z,16.57
2022-10-11T08:26:31.868Z,19.57
2022-10-11T08:29:04.239Z,17.80
2022-10-11T08:31:33.058Z,23.20
2022-10-11T08:34:00.843Z,21.08
2022-10-11T08:36:28.233Z,20.90
2022-10-11T08:38:56.039Z,18.57
2022-10-11T08:41:46.236Z,18.57
2022-10-11T08:45:05.906Z,20.93
2022-10-11T08:47:36.230Z,18.87
2022-10-11T08:50:07.098Z,17.03
2022-10-11T08:52:46.598Z,16.33
2022-10-11T08:55:37.484Z,17.73
2022-10-11T08:58:05.531Z,19.13
2022-10-11T09:00:38.328Z,16.05
2022-10-11T09:03:28.758Z,15.97
2022-10-11T09:05:59.673Z,15.00
2022-10-11T09:08:42.923Z,14.87
2022-10-11T09:11:39.923Z,14.87
2022-10-11T09:14:22.598Z,14.13
2022-10-11T09:16:56.127Z,15.27
2022-10-11T09:20:02.301Z,16.33
2022-10-11T09:22:43.813Z,14.70
2022-10-11T09:25:16.991Z,16.27
2022-10-11T09:28:03.975Z,14.50
2022-10-11T09:30:33.511Z,13.80
2022-10-11T09:33:29.193Z,14.80
2022-10-11T09:35:57.649Z,14.53
2022-10-11T09:38:36.846Z,16.17
2022-10-11T09:41:29.123Z,15.07
2022-10-11T09:43:56.967Z,14.93
2022-10-11T09:46:41.748Z,15.67
2022-10-11T09:49:13.413Z,15.30
2022-10-11T09:51:50.623Z,15.80
2022-10-11T09:54:22.407Z,17.07
2022-10-11T09:56:49.796Z,17.47
2022-10-11T09:59:29.427Z,17.47
2022-10-11T10:02:30.490Z,18.48
2022-10-11T10:05:02.808Z,15.93
2022-10-11T10:07:32.703Z,17.53
2022-10-11T10:10:29.262Z,16.53
2022-10-11T10:12:59.598Z,17.03
2022-10-11T10:15:45.323Z,16.37
2022-10-11T10:18:37.826Z,16.63
2022-10-11T10:21:10.539Z,17.20
2022-10-11T10:23:38.141Z,17.80
2022-10-11T10:26:20.239Z,17.43
2022-10-11T10:29:02.123Z,18.10
2022-10-11T10:31:55.326Z,17.00
2022-10-11T10:34:35.393Z,16.40
2022-10-11T10:37:13.286Z,17.20
2022-10-11T10:40:14.630Z,17.10
2022-10-11T10:42:42.572Z,17.53
2022-10-11T10:45:21.565Z,15.70
2022-10-11T10:48:20.388Z,15.33
2022-10-11T10:51:17.558Z,15.43
2022-10-11T10:53:52.618Z,17.67
2022-10-11T10:56:27.823Z,15.20
2022-10-11T10:59:14.255Z,14.53
2022-10-11T11:02:06.745Z,16.00
2022-10-11T11:04:57.155Z,16.33
2022-10-11T11:07:32.313Z,15.40
2022-10-11T11:09:59.927Z,14.73
2022-10-11T11:12:36.426Z,14.43
2022-10-11T11:15:14.127Z,14.83
2022-10-11T11:18:01.549Z,14.60
2022-10-11T11:20:43.997Z,15.40
2022-10-11T11:23:54.891Z,15.10
2022-10-11T11:26:51.635Z,15.73
2022-10-11T11:29:50.794Z,15.60
2022-10-11T11:32:55.774Z,16.63
2022-10-11T11:35:41.459Z,15.67
2022-10-11T11:38:18.713Z,15.70
2022-10-11T11:40:55.336Z,14.87
2022-10-11T11:43:34.077Z,18.17
2022-10-11T11:46:17.824Z,16.80
2022-10-11T11:48:47.369Z,17.17
2022-10-11T11:51:31.325Z,17.07
2022-10-11T11:54:19.549Z,16.60
2022-10-11T11:57:07.916Z,18.33
2022-10-11T11:59:41.336Z,17.92
2022-10-11T12:02:33.174Z,16.77
2022-10-11T12:05:01.985Z,17.73
2022-10-11T12:07:30.225Z,18.27
2022-10-11T12:10:25.240Z,18.58
2022-10-11T12:13:32.205Z,18.07
2022-10-11T12:16:01.733Z,19.83
2022-10-11T12:18:30.987Z,20.87
2022-10-11T12:21:24.772Z,19.08
2022-10-11T12:23:55.158Z,20.37
2022-10-11T12:26:28.713Z,20.23
2022-10-11T12:29:33.870Z,19.33
2022-10-11T12:32:01.217Z,20.30
2022-10-11T12:34:37.845Z,20.00
2022-10-11T12:37:20.525Z,20.37
2022-10-11T12:39:55.411Z,19.70
2022-10-11T12:42:29.394Z,20.80
2022-10-11T12:45:12.907Z,19.30
2022-10-11T12:47:46.207Z,19.90
2022-10-11T12:50:29.114Z,20.07
2022-10-11T12:53:38.594Z,20.80
2022-10-11T12:56:34.109Z,19.93
2022-10-11T12:59:03.929Z,20.23
2022-10-11T13:01:52.727Z,20.17
2022-10-11T13:04:29.407Z,20.30
2022-10-11T13:07:06.954Z,20.90
2022-10-11T13:09:40.108Z,21.77
2022-10-11T13:12:19.426Z,22.47
2022-10-11T13:17:37.312Z,67.57
2022-10-11T13:20:18.375Z,45.23
2022-10-11T13:22:53.286Z,39.27
2022-10-11T13:25:24.016Z,26.87
2022-10-11T13:27:55.829Z,29.93
2022-10-11T13:30:28.699Z,33.10
2022-10-11T13:32:57.705Z,24.70
2022-10-11T13:35:35.479Z,23.15
2022-10-11T13:38:05.298Z,24.15
2022-10-11T13:40:32.717Z,28.20
2022-10-11T13:43:00.551Z,45.73
2022-10-11T13:45:32.938Z,23.92
2022-10-11T13:48:00.587Z,25.27
2022-10-11T13:50:34.743Z,26.10
2022-10-11T13:53:23.755Z,22.23
2022-10-11T13:55:56.949Z,20.30
2022-10-11T13:58:32.602Z,20.33
2022-10-11T14:01:04.031Z,20.40
2022-10-11T14:03:43.769Z,19.47
2022-10-11T14:06:11.464Z,19.40
2022-10-11T14:08:52.117Z,21.20
2022-10-11T14:11:36.579Z,19.40
2022-10-11T14:14:30.691Z,20.97
2022-10-11T14:17:04.614Z,39.43
2022-10-11T14:19:32.469Z,22.10
2022-10-11T14:22:00.139Z,21.23
2022-10-11T14:24:27.541Z,23.97
2022-10-11T14:26:56.488Z,29.27
2022-10-11T14:29:29.644Z,24.17
2022-10-11T14:32:29.435Z,25.23
2022-10-11T14:34:57.173Z,25.60
2022-10-11T14:37:25.771Z,25.33
2022-10-11T14:39:53.159Z,22.10
2022-10-11T14:42:20.571Z,38.53
2022-10-11T14:44:48.357Z,24.63
2022-10-11T14:47:16.999Z,24.97
2022-10-11T14:49:45.387Z,25.65
2022-10-11T14:52:14.239Z,27.55
2022-10-11T14:54:41.990Z,26.58
2022-10-11T14:57:12.088Z,25.05
2022-10-11T14:59:40.020Z,32.10
2022-10-11T15:02:11.279Z,25.57
2022-10-11T15:04:38.632Z,25.33
2022-10-11T15:07:06.571Z,24.33
2022-10-11T15:09:34.202Z,33.33
2022-10-11T15:12:01.629Z,31.00
2022-10-11T15:14:29.398Z,27.47
2022-10-11T15:16:56.808Z,22.30
2022-10-11T15:19:25.722Z,26.70
2022-10-11T15:21:53.835Z,24.60
2022-10-11T15:24:22.717Z,24.40
2022-10-11T15:26:50.593Z,24.10
2022-10-11T15:29:19.076Z,22.90
2022-10-11T15:31:46.729Z,26.33
2022-10-11T15:34:14.437Z,24.43
2022-10-11T15:36:42.154Z,25.53
2022-10-11T15:39:39.174Z,25.50
2022-10-11T15:42:07.033Z,23.43
2022-10-11T15:44:34.523Z,21.83
2022-10-11T15:47:01.871Z,22.07
2022-10-11T15:49:29.734Z,21.47
2022-10-11T15:51:57.352Z,22.57
2022-10-11T15:54:24.973Z,23.00
2022-10-11T15:56:52.725Z,21.30
2022-10-11T15:59:20.122Z,21.90
2022-10-11T16:01:47.551Z,24.07
2022-10-11T16:04:15.399Z,23.30
2022-10-11T16:06:42.845Z,23.53
2022-10-11T16:09:10.334Z,22.97
2022-10-11T16:11:38.053Z,21.77
2022-10-11T16:14:06.340Z,23.37
2022-10-11T16:16:33.673Z,21.85
2022-10-11T16:19:01.452Z,22.70
2022-10-11T16:21:28.790Z,23.10
2022-10-11T16:23:56.150Z,24.37
2022-10-11T16:26:24.121Z,24.80
2022-10-11T16:28:51.575Z,24.47
2022-10-11T16:31:21.086Z,25.10
2022-10-11T16:33:50.371Z,24.17
2022-10-11T16:36:35.889Z,24.73
2022-10-11T16:39:13.249Z,23.53
2022-10-11T16:41:41.935Z,32.63
2022-10-11T16:46:49.167Z,33.07
2022-10-11T16:49:19.232Z,28.80
2022-10-11T16:51:46.660Z,32.00
2022-10-11T16:54:19.291Z,32.00
2022-10-11T16:56:51.478Z,32.13
2022-10-11T16:59:19.887Z,29.77
2022-10-11T17:01:47.706Z,29.42
2022-10-11T17:04:15.408Z,63.73
2022-10-11T17:06:44.130Z,32.97
2022-10-11T17:11:39.458Z,27.60
2022-10-11T17:14:07.899Z,27.67
2022-10-11T17:16:35.865Z,28.65
2022-10-11T17:19:03.652Z,26.13
2022-10-11T17:21:31.241Z,32.07
2022-10-11T17:23:58.977Z,30.67
2022-10-11T17:26:28.339Z,26.57
2022-10-11T17:28:58.341Z,27.90
2022-10-11T17:31:28.125Z,26.53
2022-10-11T17:33:57.810Z,24.37
2022-10-11T17:36:32.051Z,21.90
2022-10-11T17:39:01.073Z,23.47
2022-10-11T17:41:32.022Z,21.98
2022-10-11T17:44:01.274Z,22.77
2022-10-11T17:46:32.689Z,21.92
2022-10-11T17:49:04.946Z,25.57
2022-10-11T17:51:33.724Z,27.97
2022-10-11T17:54:03.275Z,36.23
2022-10-11T17:56:36.623Z,44.57
2022-10-11T17:59:05.981Z,51.07
2022-10-11T18:01:36.099Z,53.57
2022-10-11T18:04:06.165Z,51.25
2022-10-11T18:06:39.514Z,56.47
2022-10-11T18:09:07.868Z,42.87
2022-10-11T18:11:36.060Z,39.43
2022-10-11T18:14:05.331Z,36.50
2022-10-11T18:16:34.009Z,32.07
2022-10-11T18:19:03.732Z,33.85
2022-10-11T18:21:34.648Z,29.70
2022-10-11T18:24:08.326Z,29.40
2022-10-11T18:26:35.654Z,23.90
2022-10-11T18:29:05.588Z,25.80
2022-10-11T18:31:37.047Z,24.47
2022-10-11T18:34:08.483Z,23.40
2022-10-11T18:36:38.451Z,33.27
2022-10-11T18:39:08.756Z,29.70
2022-10-11T18:41:40.277Z,29.03
2022-10-11T18:44:09.731Z,42.20
2022-10-11T18:46:37.097Z,131.15
2022-10-11T18:49:04.533Z,69.67
2022-10-11T18:51:38.447Z,79.20
2022-10-11T18:54:07.489Z,89.20
2022-10-11T18:56:37.283Z,74.83
2022-10-11T19:01:38.448Z,65.03
2022-10-11T19:04:09.299Z,93.63
2022-10-11T19:06:43.309Z,75.57
2022-10-11T19:09:13.652Z,48.23
2022-10-11T19:11:41.916Z,41.17
2022-10-11T19:14:12.472Z,43.38
2022-10-11T19:16:42.573Z,41.27
2022-10-11T19:19:11.319Z,42.33
2022-10-11T19:21:39.160Z,43.20
2022-10-11T19:24:07.277Z,31.90
2022-10-11T19:26:37.200Z,32.93
2022-10-11T19:29:07.954Z,26.47
2022-10-11T19:31:43.588Z,29.47
2022-10-11T19:34:12.092Z,28.50
2022-10-11T19:36:42.807Z,28.10
2022-10-11T19:39:18.027Z,25.77
2022-10-11T19:41:46.690Z,26.93
2022-10-11T19:44:14.709Z,31.80
2022-10-11T19:46:51.546Z,35.20
2022-10-11T19:49:22.846Z,41.00
2022-10-11T19:51:50.552Z,42.47
2022-10-11T19:54:18.563Z,47.20
2022-10-11T19:56:46.446Z,46.45
2022-10-11T19:59:14.816Z,45.90
2022-10-11T20:01:45.527Z,40.85
2022-10-11T20:04:39.603Z,38.30
2022-10-11T20:07:03.470Z,35.27
2022-10-11T20:09:31.303Z,37.80
2022-10-11T20:11:59.258Z,44.80
2022-10-11T20:14:26.932Z,42.57
2022-10-11T20:16:54.637Z,43.07
2022-10-11T20:19:25.088Z,42.70
2022-10-11T20:21:55.540Z,37.63
2022-10-11T20:24:22.981Z,36.57
2022-10-11T20:26:50.297Z,36.53
2022-10-11T20:29:18.269Z,47.43
2022-10-11T20:31:45.671Z,44.67
2022-10-11T20:34:13.438Z,42.80
2022-10-11T20:36:42.209Z,42.93
2022-10-11T20:39:11.163Z,43.97
2022-10-11T20:41:42.895Z,55.70
2022-10-11T20:44:13.304Z,52.10
2022-10-11T20:46:40.740Z,50.10
2022-10-11T20:49:10.908Z,48.93
2022-10-11T20:51:41.749Z,49.60
2022-10-11T20:54:10.216Z,58.97
2022-10-11T20:56:38.114Z,52.90
2022-10-11T20:59:06.811Z,32.90
2022-10-11T21:01:37.641Z,24.00
2022-10-11T21:04:06.469Z,22.30
2022-10-11T21:09:01.806Z,20.53
2022-10-11T21:11:31.446Z,22.80
2022-10-11T21:14:01.723Z,21.07
2022-10-11T21:16:29.579Z,21.97
2022-10-11T21:18:58.711Z,21.73
2022-10-11T21:21:27.617Z,20.27
2022-10-11T21:24:00.558Z,21.87
2022-10-11T21:26:29.569Z,21.57
2022-10-11T21:28:59.328Z,20.37
2022-10-11T21:31:32.700Z,21.70
2022-10-11T21:34:03.399Z,21.93
2022-10-11T21:38:57.950Z,21.30
2022-10-11T21:41:26.968Z,21.27
2022-10-11T21:43:54.335Z,27.33
2022-10-11T21:46:47.442Z,27.53
2022-10-11T21:49:17.890Z,25.07
2022-10-11T21:51:45.651Z,40.23
2022-10-11T21:54:12.971Z,36.33
2022-10-11T21:56:42.191Z,26.73
2022-10-11T21:59:12.390Z,26.05
2022-10-11T22:01:41.919Z,30.33
2022-10-11T22:04:11.152Z,29.93
2022-10-11T22:06:39.064Z,29.98
2022-10-11T22:09:07.483Z,31.60
2022-10-11T22:11:35.649Z,34.13
2022-10-11T22:14:03.750Z,34.50
2022-10-11T22:16:32.856Z,34.77
2022-10-11T22:19:00.547Z,31.27
2022-10-11T22:21:28.131Z,33.03
2022-10-11T22:23:55.502Z,32.37
2022-10-11T22:26:32.672Z,31.30
2022-10-11T22:29:00.658Z,33.47
2022-10-11T22:31:29.490Z,34.00
2022-10-11T22:33:59.443Z,35.75
2022-10-11T22:36:30.646Z,43.67
2022-10-11T22:38:59.128Z,39.90
2022-10-11T22:41:26.601Z,36.97
2022-10-11T22:43:54.003Z,28.73
2022-10-11T22:46:21.684Z,30.23
2022-10-11T22:48:49.072Z,25.33
2022-10-11T22:51:16.973Z,24.17
2022-10-11T22:53:45.042Z,24.37
2022-10-11T22:56:12.467Z,23.40
2022-10-11T22:58:39.952Z,22.87
2022-10-11T23:01:09.854Z,23.97
2022-10-11T23:03:37.659Z,24.47
2022-10-11T23:06:05.531Z,27.93
2022-10-11T23:08:33.248Z,35.93
2022-10-11T23:11:07.603Z,36.87
2022-10-11T23:13:35.703Z,32.73
2022-10-11T23:16:08.284Z,29.73
2022-10-11T23:18:36.179Z,34.13
2022-10-11T23:21:04.187Z,32.60
2022-10-11T23:23:31.841Z,28.80
2022-10-11T23:26:16.043Z,31.10
2022-10-11T23:28:44.347Z,28.97
2022-10-11T23:31:16.747Z,31.33
2022-10-11T23:33:45.781Z,29.20
2022-10-11T23:36:15.616Z,30.17
2022-10-11T23:38:43.221Z,28.67
2022-10-11T23:41:10.694Z,28.63
2022-10-11T23:43:38.569Z,28.30
2022-10-11T23:46:05.864Z,31.43
2022-10-11T23:48:33.226Z,37.97
2022-10-11T23:51:01.058Z,29.43
2022-10-11T23:53:28.557Z,26.67
2022-10-11T23:55:56.011Z,27.07
2022-10-11T23:58:23.885Z,29.73
